createdAt,value
2023-01-29T00:00:37.964Z,101906.56
2023-01-29T00:03:05.810Z,101773.41
2023-01-29T00:05:35.179Z,101939.19
2023-01-29T00:08:02.365Z,101940.72
2023-01-29T00:10:29.558Z,101907.66
2023-01-29T00:13:16.942Z,101750.53
2023-01-29T00:15:58.992Z,101947.03
2023-01-29T00:18:27.437Z,101789.88
2023-01-29T00:20:54.683Z,101864.69
2023-01-29T00:23:22.322Z,101934.28
2023-01-29T00:26:08.971Z,101762.72
2023-01-29T00:29:12.892Z,101835.88
2023-01-29T00:32:13.999Z,101791.16
2023-01-29T00:34:54.535Z,101884.16
2023-01-29T00:37:21.677Z,101900.78
2023-01-29T00:39:48.683Z,101868.63
2023-01-29T00:42:34.229Z,101713.41
2023-01-29T00:45:01.228Z,101834.44
2023-01-29T00:47:33.326Z,101931.41
2023-01-29T00:50:01.913Z,101751.16
2023-01-29T00:52:29.612Z,101691.00
2023-01-29T00:54:59.008Z,101863.31
2023-01-29T00:57:28.472Z,101936.03
2023-01-29T00:59:55.926Z,101759.75
2023-01-29T01:02:42.295Z,101942.69
2023-01-29T01:05:18.304Z,101703.56
2023-01-29T01:07:51.293Z,101942.09
2023-01-29T01:10:32.129Z,101954.47
2023-01-29T01:13:20.931Z,101956.00
2023-01-29T01:16:01.917Z,101902.25
2023-01-29T01:18:32.080Z,101970.69
2023-01-29T01:20:59.745Z,101947.44
2023-01-29T01:23:28.034Z,101690.25
2023-01-29T01:26:15.003Z,101958.63
2023-01-29T01:29:15.918Z,101782.28
2023-01-29T01:32:17.085Z,101960.38
2023-01-29T01:35:17.910Z,101768.66
2023-01-29T01:38:19.026Z,101949.84
2023-01-29T01:40:53.882Z,101849.16
2023-01-29T01:43:21.015Z,101960.69
2023-01-29T01:45:48.659Z,101880.50
2023-01-29T01:48:27.182Z,101962.97
2023-01-29T01:51:03.555Z,101716.44
2023-01-29T01:53:38.597Z,101920.63
2023-01-29T01:56:09.514Z,101945.34
2023-01-29T01:58:58.879Z,101794.56
2023-01-29T02:01:30.031Z,101713.56
2023-01-29T02:04:21.754Z,101870.34
2023-01-29T02:07:08.552Z,101760.06
2023-01-29T02:09:41.497Z,101957.72
2023-01-29T02:12:30.134Z,101811.66
2023-01-29T02:15:11.772Z,101990.41
2023-01-29T02:17:39.899Z,101917.31
2023-01-29T02:20:24.919Z,101794.84
2023-01-29T02:23:34.216Z,101982.16
2023-01-29T02:27:12.928Z,101983.72
2023-01-29T02:30:19.977Z,101988.47
2023-01-29T02:33:37.271Z,101987.78
2023-01-29T02:36:35.167Z,102001.19
2023-01-29T02:39:15.680Z,101986.78
2023-01-29T02:42:06.308Z,101990.75
2023-01-29T02:44:54.395Z,101988.59
2023-01-29T02:47:36.657Z,101877.38
2023-01-29T02:50:26.602Z,101985.31
2023-01-29T02:53:16.175Z,101772.03
2023-01-29T02:56:22.452Z,101985.03
2023-01-29T02:59:01.031Z,101942.78
2023-01-29T03:01:40.791Z,101879.88
2023-01-29T03:04:14.548Z,101636.16
2023-01-29T03:06:49.669Z,101980.44
2023-01-29T03:09:28.995Z,102009.94
2023-01-29T03:12:42.978Z,101986.75
2023-01-29T03:15:53.999Z,101990.13
2023-01-29T03:19:02.111Z,101997.97
2023-01-29T03:22:06.055Z,101989.88
2023-01-29T03:25:16.051Z,101802.78
2023-01-29T03:28:10.867Z,101866.44
2023-01-29T03:31:32.124Z,101850.31
2023-01-29T03:34:37.063Z,101987.38
2023-01-29T03:37:14.175Z,102017.38
2023-01-29T03:39:42.397Z,101880.19
2023-01-29T03:42:21.338Z,101975.78
2023-01-29T03:44:54.427Z,102032.91
2023-01-29T03:48:12.622Z,101944.44
2023-01-29T03:51:00.906Z,101712.00
2023-01-29T03:53:40.048Z,101849.78
2023-01-29T03:56:34.842Z,102025.84
2023-01-29T03:59:05.747Z,102026.81
2023-01-29T04:02:26.090Z,101982.47
2023-01-29T04:05:36.065Z,101977.16
2023-01-29T04:08:31.116Z,102005.88
2023-01-29T04:11:11.517Z,101872.19
2023-01-29T04:14:00.135Z,101826.47
2023-01-29T04:17:09.054Z,101968.47
2023-01-29T04:20:52.027Z,102010.03
2023-01-29T04:23:33.194Z,101871.13
2023-01-29T04:26:23.795Z,102023.09
2023-01-29T04:29:34.039Z,102016.19
2023-01-29T04:32:41.796Z,102016.00
2023-01-29T04:35:26.582Z,102017.09
2023-01-29T04:38:08.267Z,102017.47
2023-01-29T04:40:59.569Z,101898.66
2023-01-29T04:44:11.673Z,101892.88
2023-01-29T04:47:30.220Z,102040.31
2023-01-29T04:50:43.405Z,102038.09
2023-01-29T04:53:22.942Z,102016.97
2023-01-29T04:55:59.868Z,101787.97
2023-01-29T04:59:08.131Z,101794.13
2023-01-29T05:01:42.690Z,101824.81
2023-01-29T05:04:25.181Z,101692.38
2023-01-29T05:06:53.544Z,102032.97
2023-01-29T05:09:21.772Z,102027.13
2023-01-29T05:12:09.045Z,101896.28
2023-01-29T05:14:52.451Z,102027.31
2023-01-29T05:17:20.749Z,101977.19
2023-01-29T05:20:10.283Z,101856.94
2023-01-29T05:23:11.024Z,101732.28
2023-01-29T05:25:52.934Z,102041.09
2023-01-29T05:28:20.350Z,102033.34
2023-01-29T05:31:09.263Z,102088.97
2023-01-29T05:33:52.774Z,101656.59
2023-01-29T05:36:33.994Z,101824.19
2023-01-29T05:39:06.822Z,101849.41
2023-01-29T05:41:44.525Z,102050.38
2023-01-29T05:44:28.405Z,101746.84
2023-01-29T05:47:06.843Z,101825.63
2023-01-29T05:52:38.563Z,101939.75
2023-01-29T05:55:22.947Z,101890.16
2023-01-29T05:58:26.251Z,101940.69
2023-01-29T06:01:29.265Z,101933.44
2023-01-29T06:04:21.058Z,102045.03
2023-01-29T06:06:51.162Z,101926.50
2023-01-29T06:09:21.616Z,101893.75
2023-01-29T06:12:05.012Z,101825.56
2023-01-29T06:14:50.591Z,101841.75
2023-01-29T06:17:23.449Z,102107.69
2023-01-29T06:19:57.584Z,101833.31
2023-01-29T06:22:49.708Z,101831.59
2023-01-29T06:25:24.307Z,101827.41
2023-01-29T06:28:13.240Z,101947.03
2023-01-29T06:31:37.407Z,101945.25
2023-01-29T06:34:21.731Z,101954.91
2023-01-29T06:36:52.689Z,102084.66
2023-01-29T06:42:38.870Z,101715.00
2023-01-29T06:45:19.871Z,101915.38
2023-01-29T06:47:47.032Z,102032.59
2023-01-29T06:50:14.088Z,101967.66
2023-01-29T06:52:41.318Z,102109.44
2023-01-29T06:55:08.857Z,102075.25
2023-01-29T06:57:36.318Z,101920.72
2023-01-29T07:00:04.614Z,101994.78
2023-01-29T07:03:05.989Z,102104.94
2023-01-29T07:10:10.287Z,101875.56
2023-01-29T07:12:57.169Z,102035.88
2023-01-29T07:15:58.249Z,102043.53
2023-01-29T07:18:41.315Z,102156.03
2023-01-29T07:21:08.657Z,102145.03
2023-01-29T07:23:36.140Z,102077.44
2023-01-29T07:26:05.088Z,102145.13
2023-01-29T07:28:32.417Z,102153.28
2023-01-29T07:31:20.256Z,102034.47
2023-01-29T07:34:21.127Z,102100.72
2023-01-29T07:37:02.255Z,102110.53
2023-01-29T07:39:29.496Z,102121.38
2023-01-29T07:41:56.445Z,102155.16
2023-01-29T07:44:27.218Z,102037.72
2023-01-29T07:47:23.096Z,101976.81
2023-01-29T07:50:04.841Z,102144.59
2023-01-29T07:52:37.418Z,101809.53
2023-01-29T07:55:07.035Z,101949.22
2023-01-29T07:57:39.826Z,102224.47
2023-01-29T08:00:10.440Z,102195.97
2023-01-29T08:02:41.833Z,102169.06
2023-01-29T08:05:09.623Z,101966.63
2023-01-29T08:07:39.939Z,102200.91
2023-01-29T08:10:09.587Z,101972.06
2023-01-29T08:13:03.257Z,101981.44
2023-01-29T08:15:47.795Z,101799.78
2023-01-29T08:18:18.554Z,102055.09
2023-01-29T08:21:06.530Z,101977.06
2023-01-29T08:24:07.206Z,102135.03
2023-01-29T08:26:48.750Z,101836.34
2023-01-29T08:29:36.499Z,101990.28
2023-01-29T08:35:10.037Z,102222.13
2023-01-29T08:37:45.232Z,102037.78
2023-01-29T08:40:15.981Z,102222.94
2023-01-29T08:42:45.345Z,101917.72
2023-01-29T08:45:12.571Z,101993.16
2023-01-29T08:47:49.153Z,101987.66
2023-01-29T08:50:18.277Z,102204.28
2023-01-29T08:52:47.417Z,102243.59
2023-01-29T08:55:27.221Z,102190.56
2023-01-29T08:58:28.159Z,102119.50
2023-01-29T09:01:29.260Z,102018.19
2023-01-29T09:04:10.435Z,101901.25
2023-01-29T09:06:37.633Z,102073.25
2023-01-29T09:09:04.881Z,102246.19
2023-01-29T09:11:52.192Z,102235.13
2023-01-29T09:14:37.582Z,102120.00
2023-01-29T09:17:05.160Z,102143.28
2023-01-29T09:19:33.632Z,102087.19
2023-01-29T09:22:00.643Z,102266.09
2023-01-29T09:24:40.129Z,102128.38
2023-01-29T09:27:30.147Z,102104.81
2023-01-29T09:30:31.340Z,102114.25
2023-01-29T09:33:12.535Z,102262.31
2023-01-29T09:35:43.657Z,101883.63
2023-01-29T09:38:11.329Z,102276.09
2023-01-29T09:40:54.209Z,102262.19
2023-01-29T09:43:39.777Z,102263.44
2023-01-29T09:46:30.855Z,102220.25
2023-01-29T09:49:32.243Z,102252.03
2023-01-29T09:52:06.192Z,102013.94
2023-01-29T09:54:40.171Z,102260.25
2023-01-29T09:57:16.349Z,102254.03
2023-01-29T10:00:15.013Z,102289.34
2023-01-29T10:03:55.469Z,102259.88
2023-01-29T10:06:51.369Z,102256.06
2023-01-29T10:09:43.416Z,102250.25
2023-01-29T10:12:58.249Z,102244.66
2023-01-29T10:15:57.637Z,102243.13
2023-01-29T10:18:53.186Z,102248.06
2023-01-29T10:21:46.255Z,102244.75
2023-01-29T10:24:38.945Z,102211.75
2023-01-29T10:27:17.796Z,102099.69
2023-01-29T10:30:08.218Z,102202.63
2023-01-29T10:32:50.423Z,102102.94
2023-01-29T10:35:23.770Z,102099.63
2023-01-29T10:38:15.216Z,102095.56
2023-01-29T10:41:29.218Z,102222.81
2023-01-29T10:44:39.664Z,102212.47
2023-01-29T10:47:20.297Z,101993.00
2023-01-29T10:50:34.473Z,102015.53
2023-01-29T10:57:29.748Z,102076.84
2023-01-29T11:00:13.424Z,102202.22
2023-01-29T11:02:46.989Z,102007.34
2023-01-29T11:05:44.238Z,102182.00
2023-01-29T11:08:17.023Z,102178.53
2023-01-29T11:11:07.539Z,102009.22
2023-01-29T11:14:06.227Z,102103.19
2023-01-29T11:17:07.278Z,102035.75
2023-01-29T11:20:31.325Z,101962.53
2023-01-29T11:23:46.355Z,101962.19
2023-01-29T11:26:27.121Z,101976.19
2023-01-29T11:29:14.423Z,102028.06
2023-01-29T11:32:03.657Z,102118.00
2023-01-29T11:34:33.656Z,102033.47
2023-01-29T11:37:15.735Z,101949.31
2023-01-29T11:39:51.639Z,102123.41
2023-01-29T11:42:23.337Z,101992.16
2023-01-29T11:44:50.482Z,102091.63
2023-01-29T11:47:24.492Z,102093.91
2023-01-29T11:50:00.545Z,102087.31
2023-01-29T11:52:36.807Z,101972.69
2023-01-29T11:55:07.446Z,102060.78
2023-01-29T11:58:02.416Z,101956.41
2023-01-29T12:00:49.464Z,101737.66
2023-01-29T12:03:23.885Z,102064.56
2023-01-29T12:06:01.435Z,102029.88
2023-01-29T12:08:36.949Z,101752.69
2023-01-29T12:11:37.267Z,102081.97
2023-01-29T12:14:38.802Z,102043.38
2023-01-29T12:17:18.612Z,101965.34
2023-01-29T12:19:55.619Z,102054.09
2023-01-29T12:22:29.966Z,101909.16
2023-01-29T12:25:04.344Z,101707.22
2023-01-29T12:28:09.584Z,101832.03
2023-01-29T12:31:19.367Z,102042.09
2023-01-29T12:34:28.199Z,102030.16
2023-01-29T12:37:38.363Z,101785.31
2023-01-29T12:40:26.869Z,102008.66
2023-01-29T12:42:59.854Z,101980.94
2023-01-29T12:45:29.537Z,101945.00
2023-01-29T12:48:06.235Z,101695.94
2023-01-29T12:50:35.482Z,101878.72
2023-01-29T12:53:07.925Z,102010.47
2023-01-29T12:55:44.106Z,102013.59
2023-01-29T12:58:23.484Z,101977.50
2023-01-29T13:01:38.495Z,102009.16
2023-01-29T13:04:31.280Z,101997.22
2023-01-29T13:07:23.820Z,101971.72
2023-01-29T13:10:07.037Z,101757.78
2023-01-29T13:13:05.398Z,101733.44
2023-01-29T13:16:07.457Z,101863.25
2023-01-29T13:18:54.160Z,101660.09
2023-01-29T13:21:31.660Z,101763.69
2023-01-29T13:24:21.083Z,101758.25
2023-01-29T13:26:49.705Z,101776.03
2023-01-29T13:29:40.713Z,101813.25
2023-01-29T13:32:39.921Z,101693.97
2023-01-29T13:35:33.663Z,101992.75
2023-01-29T13:38:36.314Z,101847.41
2023-01-29T13:41:06.907Z,101978.19
2023-01-29T13:43:41.874Z,101821.03
2023-01-29T13:46:18.264Z,101736.66
2023-01-29T13:48:50.313Z,101951.00
2023-01-29T13:51:22.378Z,101789.13
2023-01-29T13:54:06.668Z,101849.09
2023-01-29T13:56:34.281Z,101929.06
2023-01-29T13:59:03.777Z,101661.22
2023-01-29T14:01:49.585Z,101925.03
2023-01-29T14:04:21.901Z,101926.25
2023-01-29T14:07:13.403Z,101793.16
2023-01-29T14:10:19.089Z,101621.59
2023-01-29T14:13:26.517Z,101590.09
2023-01-29T14:16:10.696Z,101922.44
2023-01-29T14:18:47.952Z,101924.56
2023-01-29T14:21:28.662Z,101685.75
2023-01-29T14:24:12.756Z,101834.19
2023-01-29T14:26:45.720Z,101912.34
2023-01-29T14:29:41.498Z,101735.84
2023-01-29T14:32:25.324Z,101580.41
2023-01-29T14:35:01.548Z,101913.09
2023-01-29T14:37:37.920Z,101919.75
2023-01-29T14:40:26.489Z,101909.50
2023-01-29T14:43:32.404Z,101696.56
2023-01-29T14:46:36.554Z,101911.41
2023-01-29T14:49:04.242Z,101812.00
2023-01-29T14:51:38.627Z,101636.22
2023-01-29T14:54:27.186Z,101797.81
2023-01-29T14:57:06.063Z,101750.16
2023-01-29T14:59:38.360Z,101558.81
2023-01-29T15:02:39.958Z,101598.66
2023-01-29T15:05:32.316Z,101849.75
2023-01-29T15:08:43.745Z,101904.56
2023-01-29T15:11:52.606Z,101689.38
2023-01-29T15:15:01.929Z,101711.88
2023-01-29T15:17:40.336Z,101929.31
2023-01-29T15:20:27.524Z,101869.81
2023-01-29T15:23:14.415Z,101630.63
2023-01-29T15:26:04.244Z,101548.47
2023-01-29T15:28:33.828Z,101769.47
2023-01-29T15:31:27.450Z,101712.47
2023-01-29T15:34:08.274Z,101752.81
2023-01-29T15:36:39.921Z,101792.09
2023-01-29T15:39:09.988Z,101887.59
2023-01-29T15:41:37.609Z,101904.00
2023-01-29T15:44:13.716Z,101618.69
2023-01-29T15:46:44.078Z,101527.56
2023-01-29T15:49:22.835Z,101853.06
2023-01-29T15:52:13.552Z,101803.41
2023-01-29T15:55:19.755Z,101765.56
2023-01-29T15:58:01.786Z,101533.03
2023-01-29T16:00:30.408Z,101900.09
2023-01-29T16:04:17.675Z,101896.72
2023-01-29T16:07:02.194Z,101758.63
2023-01-29T16:09:30.081Z,101771.19
2023-01-29T16:12:18.419Z,101662.75
2023-01-29T16:15:01.260Z,101561.38
2023-01-29T16:17:35.556Z,101661.03
2023-01-29T16:20:49.001Z,101576.19
2023-01-29T16:23:35.388Z,101578.03
2023-01-29T16:26:07.603Z,101647.50
2023-01-29T16:28:44.964Z,101835.41
2023-01-29T16:31:40.578Z,101553.88
2023-01-29T16:34:37.369Z,101648.44
2023-01-29T16:37:33.661Z,101788.69
2023-01-29T16:40:01.029Z,101745.88
2023-01-29T16:42:30.756Z,101660.78
2023-01-29T16:45:21.086Z,101621.88
2023-01-29T16:48:22.263Z,101573.66
2023-01-29T16:50:55.579Z,101875.28
2023-01-29T16:53:25.350Z,101694.28
2023-01-29T16:56:12.498Z,101801.06
2023-01-29T16:59:15.389Z,101664.75
2023-01-29T17:02:18.476Z,101538.28
2023-01-29T17:05:18.446Z,101770.31
2023-01-29T17:08:05.482Z,101917.66
2023-01-29T17:10:52.397Z,101761.31
2023-01-29T17:13:52.523Z,101926.03
2023-01-29T17:16:36.343Z,101799.75
2023-01-29T17:19:32.522Z,101850.63
2023-01-29T17:22:15.197Z,101774.88
2023-01-29T17:25:02.462Z,101566.16
2023-01-29T17:27:46.063Z,101740.06
2023-01-29T17:30:36.504Z,101705.22
2023-01-29T17:33:22.854Z,101909.84
2023-01-29T17:35:50.664Z,101851.63
2023-01-29T17:38:26.071Z,101833.66
2023-01-29T17:41:07.357Z,101905.44
2023-01-29T17:43:35.135Z,101698.59
2023-01-29T17:46:02.565Z,101754.72
2023-01-29T17:48:31.081Z,101833.38
2023-01-29T17:51:18.449Z,101783.44
2023-01-29T17:54:19.600Z,101867.19
2023-01-29T17:57:20.947Z,101804.06
2023-01-29T18:00:01.699Z,101924.66
2023-01-29T18:02:30.061Z,101642.81
2023-01-29T18:05:17.785Z,101770.81
2023-01-29T18:07:58.271Z,101785.19
2023-01-29T18:10:25.479Z,101923.03
2023-01-29T18:13:12.579Z,101776.44
2023-01-29T18:15:53.333Z,101897.59
2023-01-29T18:18:22.387Z,101763.50
2023-01-29T18:20:50.621Z,101925.44
2023-01-29T18:23:17.903Z,101953.19
2023-01-29T18:25:45.363Z,101753.31
2023-01-29T18:28:32.539Z,101899.06
2023-01-29T18:31:33.473Z,101924.25
2023-01-29T18:34:14.212Z,101553.91
2023-01-29T18:36:41.387Z,101700.25
2023-01-29T18:39:08.647Z,101590.13
2023-01-29T18:41:35.886Z,101814.41
2023-01-29T18:44:03.028Z,101756.53
2023-01-29T18:46:30.197Z,101696.06
2023-01-29T18:48:57.360Z,101855.97
2023-01-29T18:51:24.400Z,101837.00
2023-01-29T18:53:52.473Z,101534.88
2023-01-29T18:56:20.016Z,101734.28
2023-01-29T18:58:51.899Z,101801.56
2023-01-29T19:01:23.708Z,101760.34
2023-01-29T19:04:10.545Z,101551.00
2023-01-29T19:07:12.527Z,101715.56
2023-01-29T19:09:58.776Z,101767.78
2023-01-29T19:12:48.502Z,101899.41
2023-01-29T19:15:29.749Z,101913.44
2023-01-29T19:17:57.568Z,101922.56
2023-01-29T19:20:24.891Z,101867.25
2023-01-29T19:22:52.091Z,101944.16
2023-01-29T19:25:19.938Z,101627.38
2023-01-29T19:27:47.723Z,101744.81
2023-01-29T19:30:34.699Z,101870.50
2023-01-29T19:33:15.838Z,101861.88
2023-01-29T19:35:46.560Z,101522.09
2023-01-29T19:38:19.003Z,101873.34
2023-01-29T19:41:06.486Z,101815.09
2023-01-29T19:43:48.400Z,101944.66
2023-01-29T19:46:16.004Z,101775.78
2023-01-29T19:48:43.429Z,101891.78
2023-01-29T19:51:12.382Z,101775.22
2023-01-29T19:53:44.308Z,101796.66
2023-01-29T19:56:15.213Z,101761.94
2023-01-29T19:58:43.296Z,101902.91
2023-01-29T20:01:16.784Z,101804.41
2023-01-29T20:03:48.580Z,101796.00
2023-01-29T20:06:18.965Z,101775.53
2023-01-29T20:08:46.926Z,101817.59
2023-01-29T20:11:15.568Z,101937.78
2023-01-29T20:14:05.576Z,101866.94
2023-01-29T20:17:07.847Z,101895.31
2023-01-29T20:20:10.572Z,101871.28
2023-01-29T20:22:51.727Z,101751.06
2023-01-29T20:25:39.547Z,101551.91
2023-01-29T20:28:20.757Z,101755.50
2023-01-29T20:31:07.739Z,101591.22
2023-01-29T20:33:48.733Z,101916.63
2023-01-29T20:36:16.584Z,101714.19
2023-01-29T20:38:45.171Z,101589.88
2023-01-29T20:41:17.938Z,101804.50
2023-01-29T20:43:51.066Z,101575.13
2023-01-29T20:46:19.833Z,101881.34
2023-01-29T20:48:47.377Z,101775.41
2023-01-29T20:51:17.833Z,101771.06
2023-01-29T20:53:58.714Z,101828.66
2023-01-29T20:56:45.795Z,101781.59
2023-01-29T20:59:17.708Z,101795.78
2023-01-29T21:01:47.290Z,101863.81
2023-01-29T21:04:17.579Z,101832.03
2023-01-29T21:06:45.835Z,101960.94
2023-01-29T21:09:17.032Z,101784.94
2023-01-29T21:12:04.703Z,101953.97
2023-01-29T21:15:05.649Z,101873.97
2023-01-29T21:18:10.556Z,101935.84
2023-01-29T21:21:12.802Z,101948.19
2023-01-29T21:23:42.253Z,101684.94
2023-01-29T21:26:30.659Z,101939.41
2023-01-29T21:29:35.252Z,101698.84
2023-01-29T21:32:16.619Z,101748.72
2023-01-29T21:34:44.864Z,101807.13
2023-01-29T21:37:12.096Z,101869.44
2023-01-29T21:39:39.547Z,101778.91
2023-01-29T21:42:45.596Z,101578.41
2023-01-29T21:45:46.629Z,101943.19
2023-01-29T21:48:27.509Z,101940.47
2023-01-29T21:50:54.744Z,101901.69
2023-01-29T21:53:22.838Z,101550.41
2023-01-29T21:55:56.812Z,101599.81
2023-01-29T21:59:00.760Z,101729.00
2023-01-29T22:01:37.867Z,101848.75
2023-01-29T22:04:08.836Z,101883.34
2023-01-29T22:06:35.964Z,101687.69
2023-01-29T22:09:03.091Z,101792.78
2023-01-29T22:11:53.135Z,101897.06
2023-01-29T22:14:51.638Z,101580.81
2023-01-29T22:17:52.555Z,101687.69
2023-01-29T22:21:22.259Z,101932.50
2023-01-29T22:23:53.394Z,101882.13
2023-01-29T22:26:21.836Z,101932.25
2023-01-29T22:28:49.256Z,101949.75
2023-01-29T22:31:16.728Z,101760.53
2023-01-29T22:33:43.787Z,101753.81
2023-01-29T22:36:11.279Z,101938.88
2023-01-29T22:38:38.503Z,101682.31
2023-01-29T22:41:05.675Z,101729.56
2023-01-29T22:43:52.658Z,101791.28
2023-01-29T22:46:33.321Z,101932.53
2023-01-29T22:49:00.415Z,101920.63
2023-01-29T22:51:27.838Z,101623.00
2023-01-29T22:53:56.697Z,101806.34
2023-01-29T22:56:43.562Z,101807.06
2023-01-29T22:59:44.554Z,101702.97
2023-01-29T23:02:45.594Z,101806.72
2023-01-29T23:05:47.654Z,101698.28
2023-01-29T23:08:25.637Z,101926.00
2023-01-29T23:10:53.067Z,101613.97
2023-01-29T23:13:40.631Z,101916.19
2023-01-29T23:16:27.658Z,101538.59
2023-01-29T23:18:56.990Z,101556.97
2023-01-29T23:21:26.431Z,101570.38
2023-01-29T23:24:10.210Z,101577.16
2023-01-29T23:27:05.341Z,101663.16
2023-01-29T23:30:02.732Z,101562.38
2023-01-29T23:33:06.515Z,101767.31
2023-01-29T23:36:07.638Z,101873.47
2023-01-29T23:38:51.304Z,101707.16
2023-01-29T23:41:21.479Z,101950.91
2023-01-29T23:43:56.465Z,101546.00
2023-01-29T23:46:25.305Z,101509.44
2023-01-29T23:48:52.769Z,101828.59
2023-01-29T23:51:20.065Z,101780.97
2023-01-29T23:53:49.807Z,101545.69
2023-01-29T23:56:20.354Z,101565.53
2023-01-29T23:58:55.474Z,101535.97
